»·PEaware :: N842X KSBA-KBUR

N842X :: KSBA-KBUR

FLIGHT INFORMATION

Flight Status: Arrived
Operator: Privately registered:
United States
More flights under this callsign
Pilot: John C. (29941)
Aircraft: CESSNA 172 SKYHAWK
(C172)
More flights by this aircraft type
Origin: KSBA Santa Barbara Mun
United States
Destination: KBUR Bob Hope-Burbank
United States
More flights between these airports :: More routes between these airports
Route: KSBA DCT KBUR
File this flight plan on PilotEdge
Remarks: NEW PILOT
Altitude:
(Current/Filed)
7,500ft
Speed:
(Current/Filed)
125kts
Departed: 25-Jul-20 09:46 PM
Arrived: 25-Jul-20 10:38 PM
Distance/Time
Traveled:
75nm/0:52
Distance/Time
To Go:
Arrived

Flight Plot

Page will automatically refresh every two minutes.


Map Options




Map Legend


Flown Route
Filed Route
Departure Airport
Arrival Airport
Navaid (VOR, NDB)
Fix

Horizontal Profiles

Position Reports

Time Latitude Longitude Heading Altitude Ground
Speed
25-Jul-20 21:30 34.422664 -119.835593 0 14ft 0kts
25-Jul-20 21:31 34.422664 -119.835593 340 14ft 0kts
25-Jul-20 21:32 34.422664 -119.835593 340 14ft 0kts
25-Jul-20 21:33 34.422664 -119.835593 340 14ft 0kts
25-Jul-20 21:34 34.422664 -119.835593 340 14ft 0kts
25-Jul-20 21:35 34.422664 -119.835593 340 14ft 0kts
25-Jul-20 21:36 34.422664 -119.835593 340 14ft 0kts
25-Jul-20 21:37 34.422808 -119.835585 34 14ft 5kts
25-Jul-20 21:38 34.423399 -119.837370 357 13ft 18kts
25-Jul-20 21:39 34.427549 -119.838615 345 13ft 14kts
25-Jul-20 21:41 34.430628 -119.839793 288 15ft 0kts
25-Jul-20 21:42 34.430628 -119.839792 288 15ft 0kts
25-Jul-20 21:43 34.430628 -119.839793 288 15ft 0kts
25-Jul-20 21:44 34.430628 -119.839792 288 15ft 0kts
25-Jul-20 21:45 34.430628 -119.839792 288 15ft 0kts
25-Jul-20 21:46 34.427170 -119.839240 162 14ft 69kts
25-Jul-20 21:47 34.405466 -119.830622 165 886ft 85kts
25-Jul-20 21:48 34.381983 -119.821922 157 1478ft 101kts
25-Jul-20 21:49 34.355268 -119.811311 163 1462ft 100kts
25-Jul-20 21:50 34.348982 -119.786668 64 1558ft 97kts
25-Jul-20 21:51 34.360864 -119.758818 57 2380ft 90kts
25-Jul-20 21:52 34.372205 -119.733524 54 3229ft 83kts
25-Jul-20 21:53 34.383698 -119.708528 55 4026ft 85kts
25-Jul-20 21:53 34.393173 -119.687854 55 4681ft 83kts
25-Jul-20 21:55 34.406998 -119.661441 38 5564ft 77kts
25-Jul-20 21:56 34.411704 -119.636225 98 6234ft 82kts
25-Jul-20 21:56 34.410418 -119.613838 92 6791ft 80kts
25-Jul-20 21:57 34.409284 -119.587182 97 7424ft 81kts
25-Jul-20 21:59 34.406251 -119.547936 96 7392ft 100kts
25-Jul-20 21:59 34.404945 -119.520566 87 7440ft 98kts
25-Jul-20 22:00 34.401532 -119.487924 95 7499ft 98kts
25-Jul-20 22:01 34.401204 -119.455217 83 7512ft 97kts
25-Jul-20 22:03 34.399434 -119.417099 94 7524ft 97kts
25-Jul-20 22:03 34.397086 -119.389849 93 7533ft 97kts
25-Jul-20 22:04 34.394717 -119.357185 96 7543ft 97kts
25-Jul-20 22:05 34.392182 -119.324223 91 7549ft 98kts
25-Jul-20 22:06 34.390409 -119.291294 104 7558ft 98kts
25-Jul-20 22:07 34.386627 -119.258653 95 7569ft 98kts
25-Jul-20 22:08 34.384215 -119.225886 93 7551ft 98kts
25-Jul-20 22:09 34.382060 -119.192987 95 7524ft 98kts
25-Jul-20 22:10 34.379709 -119.160148 91 7476ft 98kts
25-Jul-20 22:11 34.378740 -119.127346 97 7448ft 97kts
25-Jul-20 22:12 34.375608 -119.094674 100 7443ft 97kts
25-Jul-20 22:13 34.370921 -119.062272 95 7457ft 97kts
25-Jul-20 22:14 34.369343 -119.029388 92 7472ft 97kts
25-Jul-20 22:15 34.367781 -118.996498 93 7484ft 98kts
25-Jul-20 22:16 34.366906 -118.963341 89 7494ft 98kts
25-Jul-20 22:17 34.364366 -118.930730 100 7503ft 98kts
25-Jul-20 22:18 34.360823 -118.898211 99 7506ft 98kts
25-Jul-20 22:19 34.354430 -118.866253 106 7477ft 99kts
25-Jul-20 22:20 34.346386 -118.834874 105 7556ft 97kts
25-Jul-20 22:21 34.337678 -118.803940 115 7614ft 97kts
25-Jul-20 22:22 34.326853 -118.774189 111 7605ft 97kts
25-Jul-20 22:23 34.318967 -118.742984 105 7542ft 97kts
25-Jul-20 22:24 34.311772 -118.711521 110 7516ft 97kts
25-Jul-20 22:25 34.303907 -118.680301 108 7495ft 97kts
25-Jul-20 22:26 34.296003 -118.649125 110 7476ft 97kts
25-Jul-20 22:27 34.286108 -118.619199 110 7510ft 95kts
25-Jul-20 22:28 34.278531 -118.587930 109 7043ft 98kts
25-Jul-20 22:29 34.269284 -118.557443 111 6343ft 97kts
25-Jul-20 22:30 34.259656 -118.527013 115 5579ft 97kts
25-Jul-20 22:31 34.245732 -118.499670 140 4756ft 96kts
25-Jul-20 22:32 34.223819 -118.481079 153 3753ft 97kts
25-Jul-20 22:33 34.204175 -118.458835 123 2803ft 98kts
25-Jul-20 22:34 34.198163 -118.427671 88 1896ft 96kts
25-Jul-20 22:35 34.198323 -118.397874 93 1240ft 80kts
25-Jul-20 22:36 34.197945 -118.374221 92 880ft 64kts
25-Jul-20 22:37 34.197737 -118.358373 94 716ft 10kts
25-Jul-20 22:38 34.197197 -118.357993 181 714ft 0kts
25-Jul-20 22:39 34.196112 -118.357972 187 711ft 14kts

Navigation Log

Ident Type
Flight plan parsing failed, navigation log unavailable